createdAt,value
2022-11-24T00:01:16.309Z,4.20
2022-11-24T00:03:45.563Z,5.47
2022-11-24T00:06:15.326Z,5.67
2022-11-24T00:08:45.589Z,7.50
2022-11-24T00:11:16.467Z,5.40
2022-11-24T00:13:44.369Z,6.70
2022-11-24T00:16:16.442Z,5.83
2022-11-24T00:18:46.113Z,6.80
2022-11-24T00:21:14.458Z,5.90
2022-11-24T00:23:41.458Z,7.03
2022-11-24T00:26:17.949Z,7.13
2022-11-24T00:28:48.063Z,7.60
2022-11-24T00:31:31.026Z,4.80
2022-11-24T00:34:01.890Z,6.50
2022-11-24T00:36:31.379Z,6.10
2022-11-24T00:39:01.669Z,5.53
2022-11-24T00:41:29.837Z,6.00
2022-11-24T00:43:57.884Z,7.50
2022-11-24T00:46:25.801Z,6.40
2022-11-24T00:48:53.857Z,5.43
2022-11-24T00:51:24.614Z,4.73
2022-11-24T00:53:51.465Z,8.23
2022-11-24T00:56:18.293Z,7.73
2022-11-24T00:58:45.294Z,5.43
2022-11-24T01:01:27.815Z,4.57
2022-11-24T01:03:55.752Z,5.30
2022-11-24T01:06:27.819Z,4.50
2022-11-24T01:08:56.763Z,6.23
2022-11-24T01:11:55.646Z,7.07
2022-11-24T01:14:24.539Z,5.83
2022-11-24T01:16:51.497Z,4.63
2022-11-24T01:19:18.888Z,9.23
2022-11-24T01:21:46.280Z,6.03
2022-11-24T01:24:14.089Z,5.97
2022-11-24T01:26:41.110Z,4.20
2022-11-24T01:29:09.988Z,4.50
2022-11-24T01:31:37.101Z,4.70
2022-11-24T01:34:04.002Z,6.27
2022-11-24T01:36:30.860Z,5.77
2022-11-24T01:38:57.626Z,9.27
2022-11-24T01:41:26.586Z,6.53
2022-11-24T01:43:55.542Z,6.33
2022-11-24T01:46:36.197Z,6.10
2022-11-24T01:49:18.279Z,6.43
2022-11-24T01:52:26.089Z,5.60
2022-11-24T01:54:57.749Z,7.40
2022-11-24T01:57:35.746Z,8.47
2022-11-24T02:00:10.668Z,4.87
2022-11-24T02:02:37.676Z,5.63
2022-11-24T02:05:11.337Z,4.80
2022-11-24T02:07:38.443Z,8.20
2022-11-24T02:10:16.399Z,5.07
2022-11-24T02:12:47.012Z,3.77
2022-11-24T02:15:18.243Z,6.60
2022-11-24T02:17:45.095Z,7.37
2022-11-24T02:20:13.142Z,6.80
2022-11-24T02:23:22.654Z,7.77
2022-11-24T02:26:02.751Z,5.83
2022-11-24T02:28:30.843Z,4.77
2022-11-24T02:31:00.199Z,5.00
2022-11-24T02:33:27.923Z,8.70
2022-11-24T02:35:54.913Z,6.00
2022-11-24T02:38:33.563Z,7.00
2022-11-24T02:41:05.772Z,5.07
2022-11-24T02:43:39.924Z,5.27
2022-11-24T02:46:06.947Z,5.10
2022-11-24T02:48:33.839Z,6.03
2022-11-24T02:51:00.688Z,5.67
2022-11-24T02:53:27.615Z,6.07
2022-11-24T02:55:54.720Z,5.67
2022-11-24T02:58:21.757Z,5.00
2022-11-24T03:00:48.950Z,5.90
2022-11-24T03:03:15.852Z,7.23
2022-11-24T03:05:42.684Z,6.10
2022-11-24T03:08:09.446Z,4.73
2022-11-24T03:10:36.292Z,8.60
2022-11-24T03:13:03.087Z,5.23
2022-11-24T03:15:30.008Z,5.10
2022-11-24T03:17:56.935Z,3.90
2022-11-24T03:20:25.280Z,3.97
2022-11-24T03:22:52.453Z,4.67
2022-11-24T03:25:19.503Z,6.97
2022-11-24T03:27:46.992Z,5.30
2022-11-24T03:30:14.671Z,3.20
2022-11-24T03:32:42.009Z,3.87
2022-11-24T03:35:09.480Z,3.67
2022-11-24T03:37:36.262Z,4.90
2022-11-24T03:40:03.253Z,3.63
2022-11-24T03:42:30.059Z,3.03
2022-11-24T03:44:56.892Z,1.70
2022-11-24T03:47:23.700Z,2.10
2022-11-24T03:49:50.525Z,4.23
2022-11-24T03:52:17.348Z,3.67
2022-11-24T03:54:44.221Z,3.30
2022-11-24T03:57:11.033Z,2.77
2022-11-24T03:59:37.873Z,4.47
2022-11-24T04:02:05.098Z,3.93
2022-11-24T04:04:32.196Z,4.83
2022-11-24T04:06:59.477Z,4.60
2022-11-24T04:09:26.279Z,5.20
2022-11-24T04:12:11.416Z,3.57
2022-11-24T04:14:38.386Z,1.70
2022-11-24T04:17:05.240Z,2.13
2022-11-24T04:19:32.031Z,2.30
2022-11-24T04:21:58.808Z,3.77
2022-11-24T04:24:25.653Z,3.83
2022-11-24T04:26:52.419Z,2.70
2022-11-24T04:29:19.182Z,1.80
2022-11-24T04:31:46.030Z,2.10
2022-11-24T04:34:12.899Z,2.90
2022-11-24T04:36:40.920Z,3.17
2022-11-24T04:39:23.540Z,1.90
2022-11-24T04:41:52.986Z,4.40
2022-11-24T04:44:19.762Z,4.23
2022-11-24T04:46:46.624Z,4.30
2022-11-24T04:49:13.558Z,4.20
2022-11-24T04:51:41.247Z,3.27
2022-11-24T04:54:11.999Z,2.40
2022-11-24T04:56:40.276Z,3.27
2022-11-24T04:59:08.659Z,3.70
2022-11-24T05:01:35.846Z,6.13
2022-11-24T05:04:02.825Z,3.40
2022-11-24T05:06:29.891Z,2.17
2022-11-24T05:08:56.708Z,5.03
2022-11-24T05:11:23.523Z,4.57
2022-11-24T05:13:50.397Z,2.37
2022-11-24T05:16:17.245Z,3.90
2022-11-24T05:18:44.242Z,3.80
2022-11-24T05:21:11.047Z,3.67
2022-11-24T05:23:37.927Z,4.03
2022-11-24T05:26:05.364Z,3.80
2022-11-24T05:28:32.459Z,1.20
2022-11-24T05:31:01.692Z,2.03
2022-11-24T05:33:30.009Z,2.03
2022-11-24T05:36:02.164Z,2.83
2022-11-24T05:38:30.112Z,2.33
2022-11-24T05:41:04.846Z,3.87
2022-11-24T05:43:31.866Z,1.80
2022-11-24T05:46:00.505Z,4.47
2022-11-24T05:48:28.732Z,5.23
2022-11-24T05:50:57.528Z,3.37
2022-11-24T05:53:26.254Z,2.27
2022-11-24T05:55:53.381Z,4.63
2022-11-24T05:58:20.253Z,5.37
2022-11-24T06:00:47.156Z,4.33
2022-11-24T06:03:14.133Z,6.20
2022-11-24T06:05:46.742Z,5.17
2022-11-24T06:08:14.294Z,5.90
2022-11-24T06:10:41.455Z,4.03
2022-11-24T06:13:08.713Z,3.47
2022-11-24T06:15:37.619Z,4.57
2022-11-24T06:18:04.539Z,5.73
2022-11-24T06:20:32.901Z,5.07
2022-11-24T06:23:01.035Z,10.17
2022-11-24T06:25:29.384Z,8.60
2022-11-24T06:27:56.316Z,6.33
2022-11-24T06:30:23.258Z,5.20
2022-11-24T06:32:54.638Z,7.23
2022-11-24T06:35:21.445Z,4.27
2022-11-24T06:37:48.283Z,5.20
2022-11-24T06:40:15.248Z,4.93
2022-11-24T06:42:42.087Z,6.53
2022-11-24T06:45:09.893Z,6.40
2022-11-24T06:47:37.373Z,5.80
2022-11-24T06:50:05.448Z,3.33
2022-11-24T06:52:32.256Z,3.73
2022-11-24T06:54:59.104Z,6.07
2022-11-24T06:57:27.396Z,7.57
2022-11-24T06:59:54.389Z,6.83
2022-11-24T07:02:21.206Z,10.50
2022-11-24T07:04:48.049Z,6.97
2022-11-24T07:07:14.848Z,6.50
2022-11-24T07:09:41.801Z,7.93
2022-11-24T07:12:08.584Z,7.07
2022-11-24T07:14:35.704Z,6.03
2022-11-24T07:17:04.659Z,9.97
2022-11-24T07:19:31.867Z,7.07
2022-11-24T07:21:58.898Z,8.77
2022-11-24T07:24:25.871Z,5.53
2022-11-24T07:26:52.719Z,5.80
2022-11-24T07:29:19.877Z,7.40
2022-11-24T07:31:46.763Z,5.57
2022-11-24T07:34:14.816Z,5.23
2022-11-24T07:36:42.802Z,8.77
2022-11-24T07:39:09.645Z,9.73
2022-11-24T07:41:36.451Z,6.03
2022-11-24T07:44:03.456Z,6.33
2022-11-24T07:46:30.279Z,8.27
2022-11-24T07:48:57.116Z,5.93
2022-11-24T07:51:24.127Z,5.77
2022-11-24T07:53:51.018Z,6.13
2022-11-24T07:56:17.803Z,6.17
2022-11-24T07:58:49.799Z,8.70
2022-11-24T08:01:19.950Z,6.60
2022-11-24T08:03:47.337Z,7.63
2022-11-24T08:06:25.102Z,5.17
2022-11-24T08:08:52.201Z,3.67
2022-11-24T08:11:19.139Z,6.30
2022-11-24T08:13:46.135Z,7.63
2022-11-24T08:16:16.001Z,6.23
2022-11-24T08:18:44.265Z,5.27
2022-11-24T08:21:14.668Z,3.50
2022-11-24T08:23:42.324Z,5.27
2022-11-24T08:26:15.831Z,7.43
2022-11-24T08:28:44.629Z,4.53
2022-11-24T08:31:18.461Z,4.67
2022-11-24T08:33:46.150Z,7.63
2022-11-24T08:36:17.402Z,5.17
2022-11-24T08:38:45.459Z,4.47
2022-11-24T08:41:15.029Z,5.70
2022-11-24T08:43:42.457Z,7.30
2022-11-24T08:46:13.633Z,4.87
2022-11-24T08:48:41.517Z,3.77
2022-11-24T08:51:12.190Z,6.97
2022-11-24T08:53:40.061Z,3.50
2022-11-24T08:56:08.849Z,7.13
2022-11-24T08:58:36.194Z,5.53
2022-11-24T09:01:11.372Z,6.10
2022-11-24T09:03:41.265Z,5.43
2022-11-24T09:06:11.753Z,5.73
2022-11-24T09:08:38.865Z,3.43
2022-11-24T09:11:12.286Z,3.97
2022-11-24T09:13:40.437Z,4.53
2022-11-24T09:16:13.270Z,5.80
2022-11-24T09:18:40.371Z,7.73
2022-11-24T09:21:12.206Z,6.53
2022-11-24T09:23:40.507Z,5.17
2022-11-24T09:26:10.759Z,7.33
2022-11-24T09:28:37.861Z,5.70
2022-11-24T09:31:08.208Z,5.27
2022-11-24T09:33:36.035Z,5.77
2022-11-24T09:36:03.513Z,4.80
2022-11-24T09:38:30.536Z,4.40
2022-11-24T09:41:34.579Z,4.67
2022-11-24T09:44:23.148Z,3.87
2022-11-24T09:47:17.023Z,7.03
2022-11-24T09:50:04.227Z,6.80
2022-11-24T09:53:01.161Z,7.40
2022-11-24T09:55:46.753Z,4.93
2022-11-24T09:58:18.856Z,5.00
2022-11-24T10:00:48.625Z,4.23
2022-11-24T10:03:32.279Z,6.97
2022-11-24T10:06:04.558Z,6.40
2022-11-24T10:09:07.958Z,4.67
2022-11-24T10:12:18.533Z,7.30
2022-11-24T10:15:12.036Z,5.43
2022-11-24T10:17:45.455Z,6.37
2022-11-24T10:20:27.592Z,6.40
2022-11-24T10:23:09.352Z,3.83
2022-11-24T10:25:58.715Z,6.40
2022-11-24T10:28:56.918Z,4.37
2022-11-24T10:31:33.123Z,6.33
2022-11-24T10:34:19.358Z,5.43
2022-11-24T10:37:10.672Z,5.87
2022-11-24T10:39:48.253Z,5.70
2022-11-24T10:42:36.963Z,6.00
2022-11-24T10:45:13.993Z,3.07
2022-11-24T10:47:42.689Z,4.03
2022-11-24T10:50:27.394Z,3.23
2022-11-24T10:53:23.391Z,4.43
2022-11-24T10:55:56.377Z,5.27
2022-11-24T10:58:37.644Z,4.83
2022-11-24T11:01:14.478Z,3.47
2022-11-24T11:03:53.027Z,4.47
2022-11-24T11:06:31.510Z,4.43
2022-11-24T11:09:07.537Z,1.63
2022-11-24T11:11:36.521Z,2.17
2022-11-24T11:14:06.961Z,1.20
2022-11-24T11:16:46.108Z,2.40
2022-11-24T11:19:55.441Z,3.20
2022-11-24T11:22:36.927Z,1.77
2022-11-24T11:25:07.314Z,4.13
2022-11-24T11:27:34.249Z,2.83
2022-11-24T11:36:13.596Z,2.67
2022-11-24T11:38:41.703Z,4.47
2022-11-24T11:41:20.718Z,1.50
2022-11-24T11:43:57.504Z,3.40
2022-11-24T11:46:26.249Z,2.70
2022-11-24T11:48:53.139Z,2.17
2022-11-24T11:51:38.240Z,2.00
2022-11-24T11:54:38.083Z,2.60
2022-11-24T11:57:17.151Z,2.93
2022-11-24T12:00:09.598Z,3.13
2022-11-24T12:03:05.477Z,3.27
2022-11-24T12:06:27.973Z,1.63
2022-11-24T12:09:27.238Z,1.30
2022-11-24T12:12:44.504Z,2.13
2022-11-24T12:15:51.254Z,1.83
2022-11-24T12:19:14.813Z,1.40
2022-11-24T12:22:20.727Z,1.83
2022-11-24T12:24:58.205Z,1.73
2022-11-24T12:28:26.333Z,1.30
2022-11-24T12:31:07.112Z,2.97
2022-11-24T12:34:03.826Z,2.17
2022-11-24T12:36:56.311Z,1.30
2022-11-24T12:39:45.786Z,2.37
2022-11-24T12:42:36.009Z,1.47
2022-11-24T12:45:17.087Z,3.20
2022-11-24T12:47:52.328Z,1.40
2022-11-24T12:50:27.736Z,1.60
2022-11-24T12:53:06.507Z,1.87
2022-11-24T12:55:34.072Z,2.03
2022-11-24T12:58:17.491Z,1.73
2022-11-24T13:00:58.743Z,2.03
2022-11-24T13:03:43.233Z,2.07
2022-11-24T13:06:21.861Z,2.80
2022-11-24T13:08:49.168Z,0.87
2022-11-24T13:11:22.010Z,2.83
2022-11-24T13:14:00.277Z,1.37
2022-11-24T13:16:37.059Z,2.20
2022-11-24T13:19:33.690Z,1.07
2022-11-24T13:22:07.673Z,0.80
2022-11-24T13:24:37.449Z,1.30
2022-11-24T13:27:13.703Z,2.13
2022-11-24T13:29:43.201Z,1.53
2022-11-24T13:32:11.653Z,1.33
2022-11-24T13:34:42.676Z,2.20
2022-11-24T13:37:34.449Z,2.00
2022-11-24T13:40:11.872Z,1.53
2022-11-24T13:42:57.659Z,1.97
2022-11-24T13:45:39.799Z,1.83
2022-11-24T13:48:19.388Z,1.93
2022-11-24T13:50:58.119Z,2.50
2022-11-24T13:53:47.738Z,1.57
2022-11-24T13:56:15.032Z,1.10
2022-11-24T13:58:58.655Z,3.33
2022-11-24T14:01:36.178Z,2.77
2022-11-24T14:04:34.437Z,2.70
2022-11-24T14:07:08.709Z,1.70
2022-11-24T14:09:50.363Z,2.43
2022-11-24T14:12:24.847Z,0.60
2022-11-24T14:14:56.850Z,2.33
2022-11-24T14:17:28.117Z,1.70
2022-11-24T14:19:58.455Z,1.47
2022-11-24T14:22:40.640Z,1.40
2022-11-24T14:25:32.251Z,1.33
2022-11-24T14:28:00.527Z,2.17
2022-11-24T14:30:27.581Z,1.07
2022-11-24T14:33:09.593Z,0.77
2022-11-24T14:35:43.797Z,1.37
2022-11-24T14:38:12.517Z,1.37
2022-11-24T14:40:55.052Z,2.80
2022-11-24T14:43:29.787Z,1.17
2022-11-24T14:45:59.961Z,2.27
2022-11-24T14:48:36.286Z,0.97
2022-11-24T14:51:28.930Z,3.97
2022-11-24T14:54:01.013Z,1.67
2022-11-24T14:56:37.013Z,1.17
2022-11-24T14:59:21.115Z,1.07
2022-11-24T15:01:48.076Z,1.57
2022-11-24T15:05:00.651Z,1.87
2022-11-24T15:07:29.086Z,2.20
2022-11-24T15:10:01.841Z,2.93
2022-11-24T15:12:39.200Z,3.50
2022-11-24T15:15:32.147Z,1.10
2022-11-24T15:18:01.755Z,2.33
2022-11-24T15:20:42.179Z,1.73
2022-11-24T15:23:28.053Z,2.17
2022-11-24T15:25:57.233Z,3.57
2022-11-24T15:28:27.776Z,2.33
2022-11-24T15:31:15.488Z,3.10
2022-11-24T15:33:42.442Z,2.20
2022-11-24T15:36:09.241Z,2.57
2022-11-24T15:38:36.078Z,1.30
2022-11-24T15:41:20.863Z,2.27
2022-11-24T15:43:47.722Z,2.63
2022-11-24T15:46:14.600Z,1.90
2022-11-24T15:48:41.493Z,4.43
2022-11-24T15:51:13.407Z,10.23
2022-11-24T15:53:48.457Z,20.83
2022-11-24T15:56:31.032Z,54.43
2022-11-24T15:58:57.955Z,114.13
2022-11-24T16:01:29.705Z,73.53
2022-11-24T16:03:56.602Z,26.03
2022-11-24T16:06:25.073Z,35.53
2022-11-24T16:08:53.858Z,36.93
2022-11-24T16:11:21.478Z,13.73
2022-11-24T16:13:52.303Z,39.07
2022-11-24T16:16:20.821Z,44.97
2022-11-24T16:18:47.730Z,59.30
2022-11-24T16:21:14.612Z,103.70
2022-11-24T16:23:41.532Z,163.93
2022-11-24T16:26:09.392Z,71.60
2022-11-24T16:28:36.207Z,37.37
2022-11-24T16:31:03.017Z,18.47
2022-11-24T16:33:34.799Z,10.13
2022-11-24T16:36:01.631Z,8.57
2022-11-24T16:38:28.503Z,8.50
2022-11-24T16:40:58.611Z,8.50
2022-11-24T16:43:25.528Z,8.90
2022-11-24T16:46:15.656Z,5.20
2022-11-24T16:48:42.777Z,5.17
2022-11-24T16:51:11.141Z,3.40
2022-11-24T16:53:38.256Z,4.90
2022-11-24T16:56:05.560Z,2.90
2022-11-24T16:58:33.016Z,3.43
2022-11-24T17:01:08.781Z,4.00
2022-11-24T17:03:38.675Z,3.00
2022-11-24T17:06:08.219Z,2.50
2022-11-24T17:08:37.105Z,2.37
2022-11-24T17:11:10.118Z,2.70
2022-11-24T17:13:37.763Z,3.33
2022-11-24T17:16:06.838Z,4.47
2022-11-24T17:18:34.596Z,2.23
2022-11-24T17:21:07.885Z,3.70
2022-11-24T17:23:36.772Z,2.03
2022-11-24T17:26:10.643Z,2.23
2022-11-24T17:28:38.486Z,5.23
2022-11-24T17:31:32.156Z,3.83
2022-11-24T17:34:00.708Z,2.90
2022-11-24T17:36:30.475Z,6.47
2022-11-24T17:38:59.956Z,3.33
2022-11-24T17:41:27.827Z,2.97
2022-11-24T17:43:56.649Z,10.70
2022-11-24T17:46:25.680Z,12.70
2022-11-24T17:48:52.887Z,12.47
2022-11-24T17:51:22.056Z,8.53
2022-11-24T17:53:52.611Z,9.07
2022-11-24T17:56:25.632Z,11.00
2022-11-24T17:58:59.137Z,6.73
2022-11-24T18:01:28.561Z,5.67
2022-11-24T18:03:55.746Z,3.37
2022-11-24T18:06:25.284Z,3.67
2022-11-24T18:08:54.011Z,4.47
2022-11-24T18:11:31.483Z,4.87
2022-11-24T18:14:02.515Z,5.30
2022-11-24T18:16:32.436Z,5.13
2022-11-24T18:19:10.759Z,4.50
2022-11-24T18:21:40.423Z,4.67
2022-11-24T18:24:09.294Z,3.73
2022-11-24T18:26:36.164Z,3.13
2022-11-24T18:29:03.382Z,4.30
2022-11-24T18:31:31.410Z,3.93
2022-11-24T18:33:59.254Z,3.30
2022-11-24T18:36:30.385Z,5.10
2022-11-24T18:39:00.455Z,3.07
2022-11-24T18:41:27.466Z,3.97
2022-11-24T18:43:54.298Z,3.67
2022-11-24T18:46:21.273Z,4.23
2022-11-24T18:48:48.270Z,6.90
2022-11-24T18:51:15.200Z,5.07
2022-11-24T18:53:46.625Z,4.40
2022-11-24T18:56:16.279Z,4.07
2022-11-24T18:58:44.000Z,4.70
2022-11-24T19:01:20.060Z,5.43
2022-11-24T19:03:54.021Z,4.67
2022-11-24T19:06:28.861Z,6.23
2022-11-24T19:08:56.169Z,6.83
2022-11-24T19:11:33.626Z,5.90
2022-11-24T19:14:02.391Z,8.30
2022-11-24T19:16:29.980Z,9.00
2022-11-24T19:18:59.928Z,6.07
2022-11-24T19:21:28.913Z,5.63
2022-11-24T19:24:01.264Z,6.27
2022-11-24T19:26:32.232Z,6.03
2022-11-24T19:28:59.110Z,5.40
2022-11-24T19:31:26.727Z,5.20
2022-11-24T19:33:54.788Z,7.33
2022-11-24T19:36:23.215Z,6.10
2022-11-24T19:38:55.971Z,5.97
2022-11-24T19:41:27.667Z,5.73
2022-11-24T19:43:55.022Z,6.40
2022-11-24T19:46:26.199Z,4.57
2022-11-24T19:49:00.130Z,5.27
2022-11-24T19:51:37.165Z,6.57
2022-11-24T19:54:06.513Z,7.07
2022-11-24T19:56:36.476Z,5.73
2022-11-24T19:59:06.736Z,3.90
2022-11-24T20:01:37.910Z,5.73
2022-11-24T20:04:08.931Z,5.77
2022-11-24T20:06:39.452Z,4.13
2022-11-24T20:09:09.468Z,4.93
2022-11-24T20:11:37.815Z,6.40
2022-11-24T20:14:06.016Z,4.47
2022-11-24T20:16:34.743Z,5.13
2022-11-24T20:19:07.535Z,3.37
2022-11-24T20:21:36.629Z,4.43
2022-11-24T20:24:21.848Z,5.67
2022-11-24T20:26:56.299Z,6.13
2022-11-24T20:29:23.560Z,4.03
2022-11-24T20:31:53.814Z,5.30
2022-11-24T20:34:22.244Z,6.83
2022-11-24T20:36:49.646Z,6.10
2022-11-24T20:39:26.958Z,7.50
2022-11-24T20:41:55.636Z,7.67
2022-11-24T20:44:24.845Z,9.40
2022-11-24T20:46:51.654Z,8.40
2022-11-24T20:49:20.340Z,9.17
2022-11-24T20:51:48.276Z,9.97
2022-11-24T20:54:17.882Z,11.93
2022-11-24T20:56:46.536Z,14.53
2022-11-24T20:59:17.622Z,9.27
2022-11-24T21:01:46.424Z,9.20
2022-11-24T21:04:21.342Z,8.73
2022-11-24T21:06:48.305Z,9.53
2022-11-24T21:09:15.135Z,7.30
2022-11-24T21:11:42.514Z,8.00
2022-11-24T21:14:10.333Z,6.87
2022-11-24T21:16:40.083Z,8.53
2022-11-24T21:19:11.743Z,8.40
2022-11-24T21:21:40.144Z,7.97
2022-11-24T21:24:17.681Z,7.17
2022-11-24T21:26:50.386Z,6.40
2022-11-24T21:29:19.411Z,8.30
2022-11-24T21:31:46.308Z,8.17
2022-11-24T21:34:16.588Z,7.47
2022-11-24T21:36:44.968Z,7.00
2022-11-24T21:39:13.863Z,7.43
2022-11-24T21:41:40.977Z,6.07
2022-11-24T21:44:08.139Z,25.20
2022-11-24T21:46:42.459Z,28.83
2022-11-24T21:49:13.294Z,16.20
2022-11-24T21:51:40.050Z,8.30
2022-11-24T21:54:07.058Z,11.40
2022-11-24T21:56:33.924Z,14.57
2022-11-24T21:59:00.760Z,14.90
2022-11-24T22:01:28.788Z,20.73
2022-11-24T22:03:56.273Z,12.17
2022-11-24T22:06:23.511Z,8.57
2022-11-24T22:08:50.327Z,8.80
2022-11-24T22:11:23.421Z,9.43
2022-11-24T22:13:51.395Z,8.57
2022-11-24T22:16:24.362Z,9.43
2022-11-24T22:18:51.577Z,9.10
2022-11-24T22:21:29.862Z,8.37
2022-11-24T22:23:57.393Z,6.07
2022-11-24T22:26:24.955Z,6.90
2022-11-24T22:28:53.497Z,7.40
2022-11-24T22:31:30.388Z,5.53
2022-11-24T22:33:58.832Z,5.23
2022-11-24T22:36:30.060Z,5.50
2022-11-24T22:39:05.683Z,5.83
2022-11-24T22:41:35.561Z,7.20
2022-11-24T22:44:02.425Z,5.40
2022-11-24T22:46:31.191Z,5.60
2022-11-24T22:49:00.360Z,10.00
2022-11-24T22:51:32.376Z,12.63
2022-11-24T22:54:02.609Z,6.80
2022-11-24T22:56:32.337Z,9.17
2022-11-24T22:59:01.131Z,25.73
2022-11-24T23:01:29.988Z,10.03
2022-11-24T23:03:56.971Z,8.53
2022-11-24T23:06:26.844Z,8.30
2022-11-24T23:08:54.683Z,8.30
2022-11-24T23:11:32.651Z,8.57
2022-11-24T23:14:04.136Z,9.97
2022-11-24T23:16:31.136Z,10.03
2022-11-24T23:18:58.297Z,8.03
2022-11-24T23:21:31.751Z,7.93
2022-11-24T23:24:01.056Z,9.43
2022-11-24T23:26:36.137Z,9.17
2022-11-24T23:29:04.707Z,8.10
2022-11-24T23:31:32.472Z,8.73
2022-11-24T23:34:02.086Z,9.53
2022-11-24T23:36:29.672Z,10.37
2022-11-24T23:38:56.913Z,7.37
2022-11-24T23:41:25.719Z,8.40
2022-11-24T23:43:53.214Z,6.37
2022-11-24T23:46:26.081Z,7.07
2022-11-24T23:48:55.963Z,6.60
2022-11-24T23:51:26.244Z,7.73
2022-11-24T23:53:54.053Z,7.27
2022-11-24T23:56:24.066Z,7.63
2022-11-24T23:58:51.252Z,6.33
